sensor_id;sensor_type;location;lat;lon;timestamp;pressure;altitude;pressure_sealevel;temperature;humidity
71917;BME280;59793;46.506;6.674;2023-05-28T00:24:51;97053.16;;;19.72;56.37
71917;BME280;59793;46.506;6.674;2023-05-28T00:27:17;97049.63;;;19.78;55.61
71917;BME280;59793;46.506;6.674;2023-05-28T00:29:43;96938.34;;;18.96;55.83
71917;BME280;59793;46.506;6.674;2023-05-28T00:32:11;97045.34;;;19.50;56.79
71917;BME280;59793;46.506;6.674;2023-05-28T00:34:36;96976.88;;;18.95;56.65
71917;BME280;59793;46.506;6.674;2023-05-28T00:37:02;97045.72;;;19.52;56.09
71917;BME280;59793;46.506;6.674;2023-05-28T00:39:27;96914.56;;;18.75;56.34
71917;BME280;59793;46.506;6.674;2023-05-28T00:42:02;97042.03;;;19.39;56.24
71917;BME280;59793;46.506;6.674;2023-05-28T00:44:29;96947.75;;;18.74;56.22
71917;BME280;59793;46.506;6.674;2023-05-28T00:46:57;96948.47;;;18.78;56.72
71917;BME280;59793;46.506;6.674;2023-05-28T00:49:24;96930.44;;;18.44;57.12
71917;BME280;59793;46.506;6.674;2023-05-28T00:51:49;96978.94;;;18.80;57.17
71917;BME280;59793;46.506;6.674;2023-05-28T00:55:01;96928.03;;;18.57;57.65
71917;BME280;59793;46.506;6.674;2023-05-28T00:57:30;97042.09;;;19.35;56.99
71917;BME280;59793;46.506;6.674;2023-05-28T01:03:44;97047.75;;;19.03;57.84
71917;BME280;59793;46.506;6.674;2023-05-28T01:06:12;97048.19;;;18.98;58.17
71917;BME280;59793;46.506;6.674;2023-05-28T01:08:42;96933.34;;;18.15;58.28
71917;BME280;59793;46.506;6.674;2023-05-28T01:18:48;96938.34;;;18.13;58.62
71917;BME280;59793;46.506;6.674;2023-05-28T01:21:14;96973.19;;;18.37;58.50
71917;BME280;59793;46.506;6.674;2023-05-28T01:23:47;97042.94;;;18.88;58.37
71917;BME280;59793;46.506;6.674;2023-05-28T01:26:15;97012.19;;;18.69;58.76
71917;BME280;59793;46.506;6.674;2023-05-28T01:28:46;96904.94;;;17.95;58.83
71917;BME280;59793;46.506;6.674;2023-05-28T01:31:26;96948.94;;;18.21;59.13
71917;BME280;59793;46.506;6.674;2023-05-28T01:33:55;96923.19;;;18.00;59.22
71917;BME280;59793;46.506;6.674;2023-05-28T01:43:18;97029.41;;;18.60;58.88
71917;BME280;59793;46.506;6.674;2023-05-28T01:45:44;96924.88;;;17.72;59.38
71917;BME280;59793;46.506;6.674;2023-05-28T01:53:53;96942.44;;;17.59;60.36
71917;BME280;59793;46.506;6.674;2023-05-28T01:56:19;96984.25;;;17.73;60.68
71917;BME280;59793;46.506;6.674;2023-05-28T01:58:48;96968.69;;;17.64;60.69
71917;BME280;59793;46.506;6.674;2023-05-28T02:01:28;96964.50;;;17.63;60.60
71917;BME280;59793;46.506;6.674;2023-05-28T02:03:56;97046.44;;;18.22;60.71
71917;BME280;59793;46.506;6.674;2023-05-28T02:06:23;96923.16;;;17.37;60.67
71917;BME280;59793;46.506;6.674;2023-05-28T02:08:49;97056.44;;;18.10;61.14
71917;BME280;59793;46.506;6.674;2023-05-28T02:11:17;96980.56;;;17.45;61.56
71917;BME280;59793;46.506;6.674;2023-05-28T02:13:43;96954.72;;;17.35;60.61
71917;BME280;59793;46.506;6.674;2023-05-28T02:16:09;97003.31;;;17.67;60.49
71917;BME280;59793;46.506;6.674;2023-05-28T02:18:36;96944.88;;;17.35;60.36
71917;BME280;59793;46.506;6.674;2023-05-28T02:21:03;97041.63;;;18.02;60.21
71917;BME280;59793;46.506;6.674;2023-05-28T02:23:30;96952.03;;;17.46;59.98
71917;BME280;59793;46.506;6.674;2023-05-28T02:26:00;96947.88;;;17.41;60.41
71917;BME280;59793;46.506;6.674;2023-05-28T02:28:30;97049.56;;;18.13;60.13
71917;BME280;59793;46.506;6.674;2023-05-28T02:31:00;96983.53;;;17.61;60.98
71917;BME280;59793;46.506;6.674;2023-05-28T02:33:26;97044.94;;;18.21;60.49
71917;BME280;59793;46.506;6.674;2023-05-28T02:35:52;97024.81;;;18.05;60.50
71917;BME280;59793;46.506;6.674;2023-05-28T02:38:21;96982.38;;;17.62;60.93
71917;BME280;59793;46.506;6.674;2023-05-28T02:41:15;96929.72;;;17.18;60.94
71917;BME280;59793;46.506;6.674;2023-05-28T02:43:42;97054.91;;;18.09;60.50
71917;BME280;59793;46.506;6.674;2023-05-28T02:46:11;97059.44;;;18.12;60.15
71917;BME280;59793;46.506;6.674;2023-05-28T02:48:37;97054.91;;;18.09;60.41
71917;BME280;59793;46.506;6.674;2023-05-28T02:51:05;97029.88;;;17.89;60.36
71917;BME280;59793;46.506;6.674;2023-05-28T02:53:32;96939.59;;;17.25;60.64
71917;BME280;59793;46.506;6.674;2023-05-28T02:56:00;97009.34;;;17.82;59.58
71917;BME280;59793;46.506;6.674;2023-05-28T02:58:37;96931.59;;;17.25;59.58
71917;BME280;59793;46.506;6.674;2023-05-28T03:01:06;96959.31;;;17.34;59.64
71917;BME280;59793;46.506;6.674;2023-05-28T03:03:32;97034.09;;;17.83;59.84
71917;BME280;59793;46.506;6.674;2023-05-28T03:09:39;96981.78;;;17.26;61.12
71917;BME280;59793;46.506;6.674;2023-05-28T03:12:39;97070.25;;;17.84;61.29
71917;BME280;59793;46.506;6.674;2023-05-28T03:15:09;96939.28;;;16.98;60.58
71917;BME280;59793;46.506;6.674;2023-05-28T03:21:01;96953.34;;;16.98;61.05
71917;BME280;59793;46.506;6.674;2023-05-28T03:24:03;96953.78;;;16.86;61.61
71917;BME280;59793;46.506;6.674;2023-05-28T03:26:30;97076.03;;;17.64;61.47
71917;BME280;59793;46.506;6.674;2023-05-28T03:28:56;96949.59;;;16.81;61.40
71917;BME280;59793;46.506;6.674;2023-05-28T03:36:59;97062.38;;;17.41;62.20
71917;BME280;59793;46.506;6.674;2023-05-28T03:44:36;97023.31;;;16.91;63.33
71917;BME280;59793;46.506;6.674;2023-05-28T03:47:03;97065.50;;;17.22;63.14
71917;BME280;59793;46.506;6.674;2023-05-28T03:49:30;96989.47;;;16.67;63.35
71917;BME280;59793;46.506;6.674;2023-05-28T03:57:33;97068.13;;;17.32;63.27
71917;BME280;59793;46.506;6.674;2023-05-28T04:00:09;96986.84;;;16.81;63.13
71917;BME280;59793;46.506;6.674;2023-05-28T04:56:29;96978.47;;;16.65;65.03
71917;BME280;59793;46.506;6.674;2023-05-28T06:14:33;97116.81;;;19.05;65.16
71917;BME280;59793;46.506;6.674;2023-05-28T06:16:58;97089.94;;;18.78;64.56
71917;BME280;59793;46.506;6.674;2023-05-28T06:19:45;97041.50;;;18.24;64.69
71917;BME280;59793;46.506;6.674;2023-05-28T06:43:10;97023.38;;;18.53;62.70
71917;BME280;59793;46.506;6.674;2023-05-28T09:52:45;96965.75;;;21.53;49.34
71917;BME280;59793;46.506;6.674;2023-05-28T09:55:17;96926.13;;;21.61;47.87
71917;BME280;59793;46.506;6.674;2023-05-28T22:09:53;96788.72;;;21.57;42.09
71917;BME280;59793;46.506;6.674;2023-05-28T22:12:39;96793.34;;;21.56;42.09
71917;BME280;59793;46.506;6.674;2023-05-28T22:15:13;96762.88;;;21.30;41.85
71917;BME280;59793;46.506;6.674;2023-05-28T22:18:10;96753.41;;;21.25;42.03
71917;BME280;59793;46.506;6.674;2023-05-28T22:24:20;96806.63;;;21.43;42.18
71917;BME280;59793;46.506;6.674;2023-05-28T22:27:06;96813.94;;;21.43;41.82
71917;BME280;59793;46.506;6.674;2023-05-28T22:35:25;96690.66;;;20.74;41.07
71917;BME280;59793;46.506;6.674;2023-05-28T22:38:09;96766.16;;;21.21;41.32
71917;BME280;59793;46.506;6.674;2023-05-28T22:40:35;96699.72;;;20.80;41.11
71917;BME280;59793;46.506;6.674;2023-05-28T22:43:06;96700.31;;;20.71;42.15
71917;BME280;59793;46.506;6.674;2023-05-28T22:45:32;96798.28;;;21.41;42.58
71917;BME280;59793;46.506;6.674;2023-05-28T22:53:22;96745.50;;;20.86;42.76
71917;BME280;59793;46.506;6.674;2023-05-28T22:58:36;96704.84;;;20.74;43.51
71917;BME280;59793;46.506;6.674;2023-05-28T23:01:03;96703.59;;;20.59;43.75
71917;BME280;59793;46.506;6.674;2023-05-28T23:29:02;96726.00;;;20.09;44.29
71917;BME280;59793;46.506;6.674;2023-05-28T23:34:05;96723.56;;;19.95;44.48
71917;BME280;59793;46.506;6.674;2023-05-28T23:47:08;96775.25;;;19.88;45.47
71917;BME280;59793;46.506;6.674;2023-05-28T23:49:35;96763.88;;;19.84;45.75
71917;BME280;59793;46.506;6.674;2023-05-28T23:52:02;96740.47;;;19.68;46.22
71917;BME280;59793;46.506;6.674;2023-05-28T23:54:29;96748.44;;;19.72;46.47
